Delta Virtual Airport Information Service

Mexico City International Airport

ICAO: MMMX Country: Mexico
Latitude: 19.4363 Longitude: -99.072
Latest Arrival : AMX709 (1) (SKBO-MMMX) Latest Departure : DLH499 (MMMX-EDDF)


WX CaptureLIVE
Data provided by noaa.gov | Fetched at 23:04:47

METAR : MMMX 240246Z 36006KT 12SM SKC 19/M02 A3040 NOSIG RMK SLP142 52028 923

TAF : MMMX 232247Z 2400/2506 01012KT P6SM SKC TX25/2421Z TN09/2412Z FM240200 03005KT P6SM SCT200 FM241200 00000KT 5SM HZ SKC BECMG 2417/2418 04010KT P6SM FM250200 02005KT P6SM SCT200


Runway Data for MMMX
Data provided by openaviationdata.com

Runway ID Mag Var Hdg Length Elevation Surface ILS Freq ILS Id ILS Slope
05L 7 52° 12966 ft 7314 ft Asphalt -- -- --
05R 7 52° 12795 ft 7314 ft Asphalt 109.1 IMWX 3
23L 7 232° 12795 ft 7314 ft Asphalt 109.7 IMEX 3
23R 7 232° 12966 ft 7314 ft Asphalt -- -- --

Mexico City International Airport, Mexico
Use only for reference purposes



Not for navigational purposes.